Time;durP1;ratioP1;P1;durP2;ratioP2;P2;SDS_P1;SDS_P2;PMS_P1;PMS_P2;Temp;Humidity;BMP_temperature;BMP_pressure;BME280_temperature;BME280_humidity;BME280_pressure;Samples;Min_cycle;Max_cycle;Signal;HPM_P1;HPM_P2
2023/05/26 00:01:22;;;;;;;3.00;1.48;;;;;;;9.14;100.00;102362.31;5040005;28;20557;-54
2023/05/26 00:03:49;;;;;;;4.93;1.58;;;;;;;9.14;100.00;102363.13;5039667;28;20078;-52
2023/05/26 00:06:20;;;;;;;3.17;1.15;;;;;;;9.12;100.00;102365.06;5040635;28;20718;-51
2023/05/26 00:08:47;;;;;;;6.70;2.38;;;;;;;8.94;100.00;102356.94;5019655;28;20386;-52
2023/05/26 00:11:12;;;;;;;7.88;1.35;;;;;;;8.84;100.00;102358.72;5049941;28;20393;-53
2023/05/26 00:13:38;;;;;;;1.77;1.30;;;;;;;8.79;100.00;102363.56;5038273;28;20032;-54
2023/05/26 00:16:03;;;;;;;6.57;1.38;;;;;;;8.73;100.00;102359.66;5034063;28;20033;-53
2023/05/26 00:18:28;;;;;;;4.57;1.63;;;;;;;8.66;100.00;102369.09;5039293;28;20513;-53
2023/05/26 00:20:54;;;;;;;3.90;1.80;;;;;;;8.84;100.00;102371.09;5034754;28;20122;-56
2023/05/26 00:23:19;;;;;;;3.88;1.70;;;;;;;8.72;100.00;102365.06;5044088;28;20033;-55
2023/05/26 00:25:45;;;;;;;4.13;1.83;;;;;;;8.71;100.00;102373.97;5042964;28;20029;-54
2023/05/26 00:28:10;;;;;;;3.60;1.13;;;;;;;8.78;100.00;102361.91;5041065;28;20044;-51
2023/05/26 00:30:35;;;;;;;5.65;2.28;;;;;;;8.74;100.00;102371.06;5040088;28;20021;-57
2023/05/26 00:33:01;;;;;;;5.95;1.70;;;;;;;8.88;100.00;102364.56;5045141;28;20040;-54
2023/05/26 00:35:26;;;;;;;6.00;1.15;;;;;;;8.87;100.00;102368.19;5050634;28;20119;-55
2023/05/26 00:37:52;;;;;;;3.80;0.80;;;;;;;8.82;100.00;102363.28;5055738;28;20033;-54
2023/05/26 00:40:17;;;;;;;3.30;1.25;;;;;;;8.73;100.00;102369.41;5046641;28;20041;-53
2023/05/26 00:42:43;;;;;;;7.45;1.48;;;;;;;8.66;100.00;102366.44;5047389;28;20051;-53
2023/05/26 00:45:08;;;;;;;3.95;1.75;;;;;;;8.63;100.00;102363.22;5051686;28;20367;-54
2023/05/26 00:47:34;;;;;;;6.32;2.08;;;;;;;8.62;100.00;102364.19;5038905;28;20112;-53
2023/05/26 00:50:00;;;;;;;3.60;1.38;;;;;;;8.59;100.00;102362.63;5046668;28;20029;-51
2023/05/26 00:52:25;;;;;;;2.45;0.68;;;;;;;8.61;100.00;102360.72;5046855;28;20486;-55
2023/05/26 00:54:53;;;;;;;4.38;0.88;;;;;;;8.63;100.00;102365.88;5046692;28;20041;-56
2023/05/26 00:57:19;;;;;;;3.40;1.05;;;;;;;8.71;100.00;102363.41;5044553;28;20377;-55
2023/05/26 00:59:44;;;;;;;3.30;1.52;;;;;;;8.73;100.00;102362.31;5041043;28;20033;-53
2023/05/26 01:02:12;;;;;;;7.45;0.80;;;;;;;8.73;100.00;102358.81;5044862;28;20365;-56
2023/05/26 01:04:40;;;;;;;4.40;1.90;;;;;;;8.61;100.00;102359.88;5039050;28;20037;-55
2023/05/26 01:07:05;;;;;;;5.07;1.48;;;;;;;8.58;100.00;102365.44;5044855;28;20028;-51
2023/05/26 01:09:31;;;;;;;11.35;2.22;;;;;;;8.58;100.00;102360.97;5047906;28;20496;-52
2023/05/26 01:12:13;;;;;;;5.55;1.60;;;;;;;8.57;100.00;102366.38;5048438;28;20028;-55
2023/05/26 01:15:04;;;;;;;3.17;0.88;;;;;;;8.54;100.00;102364.00;5045954;28;20065;-55
2023/05/26 01:17:36;;;;;;;11.07;0.93;;;;;;;8.62;100.00;102366.81;5036999;28;20397;-52
2023/05/26 01:20:12;;;;;;;7.80;1.17;;;;;;;8.63;100.00;102366.72;5041694;28;20128;-55
2023/05/26 01:22:48;;;;;;;2.92;1.00;;;;;;;8.60;100.00;102366.16;5039273;28;20278;-52
2023/05/26 01:25:51;;;;;;;5.53;1.65;;;;;;;8.52;100.00;102365.00;5041848;28;20033;-54
2023/05/26 01:28:21;;;;;;;6.47;2.58;;;;;;;8.50;100.00;102361.63;5048525;28;20059;-55
2023/05/26 01:30:48;;;;;;;9.75;1.73;;;;;;;8.52;100.00;102364.16;5042885;28;20029;-54
2023/05/26 01:33:14;;;;;;;6.63;1.55;;;;;;;8.53;100.00;102371.09;5043437;28;20041;-53
2023/05/26 01:35:39;;;;;;;4.38;1.55;;;;;;;8.52;100.00;102367.63;5035702;28;20320;-57
2023/05/26 01:38:06;;;;;;;4.95;0.95;;;;;;;8.46;100.00;102362.84;5045947;28;20112;-52
2023/05/26 01:40:33;;;;;;;4.53;0.95;;;;;;;8.40;100.00;102359.91;5042786;28;20991;-51
2023/05/26 01:43:08;;;;;;;3.40;1.23;;;;;;;8.34;100.00;102361.25;5039117;28;20041;-49
2023/05/26 01:45:38;;;;;;;10.35;2.05;;;;;;;8.30;100.00;102359.81;5045551;28;20083;-55
2023/05/26 01:48:06;;;;;;;6.22;1.27;;;;;;;8.27;100.00;102366.19;5042837;28;20059;-53
2023/05/26 01:50:47;;;;;;;8.65;1.73;;;;;;;8.27;100.00;102360.91;5044116;28;20036;-55
2023/05/26 01:53:13;;;;;;;7.43;0.93;;;;;;;8.25;100.00;102370.78;5045023;28;20040;-50
2023/05/26 01:55:41;;;;;;;1.05;0.70;;;;;;;8.21;100.00;102368.50;5039629;28;20041;-54
2023/05/26 01:58:07;;;;;;;6.90;1.08;;;;;;;8.11;100.00;102362.34;5025411;28;20034;-50
2023/05/26 02:00:32;;;;;;;4.57;0.95;;;;;;;8.07;100.00;102372.31;5043042;28;20462;-51
2023/05/26 02:02:58;;;;;;;5.07;1.85;;;;;;;8.15;100.00;102369.88;5043565;28;20036;-50
2023/05/26 02:05:23;;;;;;;3.22;0.90;;;;;;;8.13;100.00;102370.97;5044281;28;20029;-51
2023/05/26 02:07:50;;;;;;;5.80;1.35;;;;;;;8.02;100.00;102363.94;5042573;28;20501;-52
2023/05/26 02:10:15;;;;;;;9.38;1.67;;;;;;;7.99;100.00;102364.19;5039273;28;20056;-53
2023/05/26 02:12:40;;;;;;;7.75;2.08;;;;;;;8.00;100.00;102361.44;5043979;28;20482;-52
2023/05/26 02:15:06;;;;;;;7.53;2.90;;;;;;;8.01;100.00;102362.28;5040716;28;20032;-53
2023/05/26 02:17:32;;;;;;;4.65;1.48;;;;;;;7.94;100.00;102366.38;5044477;28;20037;-50
2023/05/26 02:19:58;;;;;;;11.85;1.38;;;;;;;7.90;100.00;102367.59;5040924;28;20036;-50
2023/05/26 02:22:23;;;;;;;7.32;0.95;;;;;;;7.86;100.00;102374.94;5041319;28;20017;-52
2023/05/26 02:24:49;;;;;;;5.53;0.55;;;;;;;7.76;100.00;102371.41;5041934;28;20488;-52
2023/05/26 02:27:15;;;;;;;8.82;1.88;;;;;;;7.74;100.00;102366.22;5043023;28;20021;-51
2023/05/26 02:29:41;;;;;;;8.77;0.65;;;;;;;7.67;100.00;102369.50;5042996;28;20512;-52
2023/05/26 02:32:06;;;;;;;5.05;2.72;;;;;;;7.68;100.00;102373.81;5043406;28;20028;-52
2023/05/26 02:34:31;;;;;;;4.47;0.93;;;;;;;7.69;100.00;102362.28;5039206;28;20206;-52
2023/05/26 02:36:57;;;;;;;7.63;0.93;;;;;;;7.61;100.00;102369.03;5043175;28;20165;-52
2023/05/26 02:39:22;;;;;;;2.38;0.77;;;;;;;7.47;100.00;102379.06;5041686;28;20423;-51
2023/05/26 02:41:48;;;;;;;11.57;1.70;;;;;;;7.57;100.00;102378.19;5043826;28;20475;-51
2023/05/26 02:44:13;;;;;;;2.88;0.52;;;;;;;7.60;100.00;102379.72;5033018;28;20048;-54
2023/05/26 02:46:39;;;;;;;6.05;1.40;;;;;;;7.48;100.00;102376.28;5021899;28;20438;-55
2023/05/26 02:49:05;;;;;;;4.35;0.88;;;;;;;7.38;100.00;102375.34;5044039;28;20036;-54
2023/05/26 02:51:30;;;;;;;1.05;0.60;;;;;;;7.11;100.00;102379.25;5041618;28;20029;-54
2023/05/26 02:53:56;;;;;;;7.32;1.40;;;;;;;7.32;100.00;102375.84;5040400;28;20068;-56
2023/05/26 02:56:21;;;;;;;5.60;0.75;;;;;;;7.28;100.00;102375.25;5041236;28;20116;-50
2023/05/26 02:58:47;;;;;;;12.23;1.30;;;;;;;7.35;100.00;102373.78;5036874;28;20064;-51
2023/05/26 03:01:12;;;;;;;12.05;1.05;;;;;;;7.33;100.00;102380.16;5037536;28;20120;-50
2023/05/26 03:03:38;;;;;;;4.47;0.85;;;;;;;7.35;100.00;102380.88;5049799;28;20104;-51
2023/05/26 03:06:04;;;;;;;6.32;1.00;;;;;;;7.36;100.00;102370.22;5038215;28;20025;-51
2023/05/26 03:08:30;;;;;;;4.05;0.80;;;;;;;7.33;100.00;102386.28;5042585;28;20500;-50
2023/05/26 03:10:56;;;;;;;3.85;1.05;;;;;;;7.30;100.00;102383.03;5040777;28;20033;-50
2023/05/26 03:13:21;;;;;;;2.03;0.95;;;;;;;7.30;100.00;102380.41;5040236;28;20040;-49
2023/05/26 03:15:48;;;;;;;2.63;0.63;;;;;;;7.04;100.00;102378.03;5040540;28;20033;-55
2023/05/26 03:18:13;;;;;;;4.82;0.52;;;;;;;7.02;100.00;102385.22;5043079;28;20028;-57
2023/05/26 03:20:39;;;;;;;2.22;0.65;;;;;;;7.14;100.00;102389.53;5039488;28;20021;-55
2023/05/26 03:23:04;;;;;;;2.70;0.40;;;;;;;7.15;100.00;102383.31;5041029;28;20822;-55
2023/05/26 03:25:30;;;;;;;6.40;2.15;;;;;;;7.17;100.00;102377.91;5043306;28;20041;-53
2023/05/26 03:27:55;;;;;;;4.82;0.93;;;;;;;7.20;100.00;102386.44;5039973;28;20033;-54
2023/05/26 03:30:21;;;;;;;5.97;0.98;;;;;;;7.19;100.00;102382.09;5040361;28;20048;-55
2023/05/26 03:32:46;;;;;;;4.90;0.80;;;;;;;7.22;100.00;102376.56;5039183;28;20432;-54
2023/05/26 03:35:12;;;;;;;11.25;2.05;;;;;;;7.24;100.00;102376.47;5031020;28;20441;-52
2023/05/26 03:37:37;;;;;;;5.78;0.60;;;;;;;7.15;100.00;102385.97;5039057;28;20017;-56
2023/05/26 03:40:03;;;;;;;6.03;1.17;;;;;;;7.16;100.00;102382.34;5020824;28;20057;-51
2023/05/26 03:42:29;;;;;;;5.50;0.77;;;;;;;7.10;100.00;102385.50;5043293;28;20045;-51
2023/05/26 03:44:55;;;;;;;4.53;0.77;;;;;;;7.08;100.00;102379.50;5037672;28;20607;-50
2023/05/26 03:47:20;;;;;;;3.65;2.10;;;;;;;7.06;100.00;102386.69;5042726;28;20501;-54
2023/05/26 03:49:46;;;;;;;3.55;0.80;;;;;;;7.09;100.00;102382.97;5038888;28;20025;-54
2023/05/26 03:52:11;;;;;;;10.65;2.55;;;;;;;7.15;100.00;102378.03;5041022;28;20432;-53
2023/05/26 03:54:36;;;;;;;4.72;1.10;;;;;;;7.15;100.00;102378.03;5041631;28;20370;-55
2023/05/26 03:57:02;;;;;;;7.85;1.35;;;;;;;7.16;100.00;102377.06;5044046;28;20037;-53
2023/05/26 03:59:27;;;;;;;8.27;1.08;;;;;;;7.18;100.00;102379.59;5040954;28;20107;-54
2023/05/26 04:01:53;;;;;;;1.83;0.28;;;;;;;7.20;100.00;102375.00;5044301;28;20044;-58
2023/05/26 04:04:18;;;;;;;8.82;1.70;;;;;;;7.17;100.00;102378.75;5036237;28;20454;-52
2023/05/26 04:06:43;;;;;;;4.55;1.30;;;;;;;7.14;100.00;102384.25;5041268;28;20065;-52
2023/05/26 04:09:08;;;;;;;7.68;1.38;;;;;;;6.84;100.00;102381.41;5045065;28;20111;-53
2023/05/26 04:11:34;;;;;;;8.45;0.90;;;;;;;6.82;100.00;102380.72;5041766;28;20152;-54
2023/05/26 04:14:00;;;;;;;11.88;0.90;;;;;;;6.83;100.00;102390.28;5046842;28;20037;-52
2023/05/26 04:16:25;;;;;;;7.50;1.13;;;;;;;6.84;100.00;102390.19;5042561;28;20052;-53
2023/05/26 04:18:50;;;;;;;10.05;4.00;;;;;;;6.93;100.00;102388.59;5036024;28;20025;-53
2023/05/26 04:21:16;;;;;;;6.28;0.90;;;;;;;7.15;100.00;102390.38;5039472;28;20029;-54
2023/05/26 04:23:41;;;;;;;7.05;0.88;;;;;;;7.15;100.00;102391.25;5039600;28;20036;-54
2023/05/26 04:26:07;;;;;;;8.98;1.08;;;;;;;7.20;100.00;102389.06;5040498;28;20040;-52
2023/05/26 04:28:33;;;;;;;11.80;1.50;;;;;;;7.19;100.00;102387.38;5038808;28;20068;-51
2023/05/26 04:31:00;;;;;;;1.85;0.95;;;;;;;6.83;100.00;102392.94;5043176;28;20451;-51
2023/05/26 04:33:26;;;;;;;6.30;2.05;;;;;;;6.79;100.00;102394.97;5045525;28;20095;-51
2023/05/26 04:35:51;;;;;;;6.95;0.95;;;;;;;6.77;100.00;102396.88;5043403;28;20033;-51
2023/05/26 04:38:17;;;;;;;3.45;1.10;;;;;;;6.85;100.00;102402.41;5043571;28;20043;-50
2023/05/26 04:40:43;;;;;;;11.73;2.33;;;;;;;7.09;100.00;102396.97;5045504;28;20020;-53
2023/05/26 04:43:10;;;;;;;10.85;0.77;;;;;;;7.15;100.00;102404.44;5043969;28;20125;-52
2023/05/26 04:45:37;;;;;;;4.88;1.00;;;;;;;6.97;100.00;102412.00;5045369;28;20021;-54
2023/05/26 04:48:05;;;;;;;4.13;0.98;;;;;;;6.86;100.00;102411.97;5042389;28;20042;-51
2023/05/26 04:50:32;;;;;;;11.23;1.48;;;;;;;6.81;100.00;102415.94;5037947;28;20374;-52
2023/05/26 04:52:58;;;;;;;5.32;1.27;;;;;;;6.81;100.00;102419.41;5046153;28;20120;-55
2023/05/26 04:55:25;;;;;;;3.42;1.02;;;;;;;6.95;100.00;102416.53;5042333;28;20057;-52
2023/05/26 04:57:51;;;;;;;10.77;1.90;;;;;;;6.94;100.00;102420.16;5044350;28;20095;-52
2023/05/26 05:00:17;;;;;;;11.40;1.92;;;;;;;6.95;100.00;102426.25;5043970;28;20049;-51
2023/05/26 05:02:42;;;;;;;9.52;1.95;;;;;;;6.97;100.00;102422.53;5022343;28;20029;-51
2023/05/26 05:05:08;;;;;;;5.75;2.20;;;;;;;6.99;100.00;102425.88;5042846;28;20285;-49
2023/05/26 05:07:33;;;;;;;10.18;0.75;;;;;;;7.10;100.00;102427.69;5039032;28;20393;-51
2023/05/26 05:09:59;;;;;;;9.45;2.63;;;;;;;7.24;100.00;102436.31;5036851;28;20036;-55
2023/05/26 05:12:24;;;;;;;15.93;2.05;;;;;;;7.37;100.00;102431.75;5041845;28;20040;-50
2023/05/26 05:14:50;;;;;;;6.68;2.10;;;;;;;7.41;100.00;102425.25;5034199;28;20052;-50
2023/05/26 05:17:16;;;;;;;6.40;1.00;;;;;;;7.44;100.00;102430.28;5049006;28;20032;-52
2023/05/26 05:19:41;;;;;;;11.30;2.10;;;;;;;7.53;100.00;102436.63;5035767;28;20029;-53
2023/05/26 05:22:07;;;;;;;7.80;2.15;;;;;;;7.65;100.00;102439.13;5041521;28;20033;-53
2023/05/26 05:24:33;;;;;;;9.25;1.88;;;;;;;7.71;100.00;102423.75;5025087;28;20025;-52
2023/05/26 05:26:58;;;;;;;10.73;2.45;;;;;;;7.85;100.00;102434.88;5039968;28;20024;-50
2023/05/26 05:29:24;;;;;;;8.80;1.60;;;;;;;8.03;100.00;102435.16;5044869;28;20119;-53
2023/05/26 05:31:49;;;;;;;7.43;2.30;;;;;;;8.26;100.00;102441.19;5040509;28;20122;-51
2023/05/26 05:34:14;;;;;;;6.45;1.02;;;;;;;8.38;100.00;102439.31;5042899;28;20061;-51
2023/05/26 05:36:40;;;;;;;10.27;1.90;;;;;;;8.53;100.00;102447.78;5043475;28;20477;-53
2023/05/26 05:39:05;;;;;;;13.80;3.17;;;;;;;8.68;100.00;102449.13;5038388;28;20040;-52
2023/05/26 05:41:30;;;;;;;7.68;1.00;;;;;;;8.97;100.00;102453.72;5040262;28;20543;-54
2023/05/26 05:43:59;;;;;;;16.83;3.78;;;;;;;9.15;100.00;102446.00;5044827;28;20040;-52
2023/05/26 05:46:24;;;;;;;6.70;2.05;;;;;;;9.27;100.00;102450.25;5040695;28;20120;-56
2023/05/26 05:48:49;;;;;;;14.25;3.00;;;;;;;9.41;100.00;102450.84;5043405;28;20131;-52
2023/05/26 05:51:15;;;;;;;15.07;3.85;;;;;;;9.55;100.00;102453.06;5034806;28;20421;-54
2023/05/26 05:53:40;;;;;;;14.45;2.95;;;;;;;9.82;100.00;102447.97;5043020;28;20485;-55
2023/05/26 05:56:05;;;;;;;10.25;2.47;;;;;;;9.96;100.00;102457.31;5035004;28;20025;-50
2023/05/26 05:58:31;;;;;;;12.95;1.98;;;;;;;10.00;100.00;102457.91;5039459;28;20025;-53
2023/05/26 06:00:56;;;;;;;14.00;4.28;;;;;;;10.14;100.00;102456.63;5037798;28;20029;-54
2023/05/26 06:03:22;;;;;;;13.75;4.10;;;;;;;10.25;100.00;102454.69;5042376;28;20115;-54
2023/05/26 06:05:47;;;;;;;18.73;3.47;;;;;;;10.40;100.00;102462.22;5034569;28;20060;-51
2023/05/26 06:08:12;;;;;;;8.98;2.17;;;;;;;10.51;100.00;102462.09;5041368;28;20083;-55
2023/05/26 06:10:37;;;;;;;13.60;4.68;;;;;;;10.66;100.00;102454.50;5042292;28;20104;-53
2023/05/26 06:13:03;;;;;;;8.75;2.40;;;;;;;10.95;100.00;102446.47;5041689;28;20037;-52
2023/05/26 06:15:28;;;;;;;14.65;2.05;;;;;;;11.06;100.00;102453.41;5038690;28;20327;-52
2023/05/26 06:17:54;;;;;;;11.70;1.98;;;;;;;11.25;100.00;102447.16;5041933;28;20037;-51
2023/05/26 06:20:19;;;;;;;11.32;3.50;;;;;;;11.37;100.00;102456.63;5036521;28;20052;-54
2023/05/26 06:22:44;;;;;;;17.50;3.78;;;;;;;11.54;100.00;102462.97;5040207;28;20037;-56
2023/05/26 06:25:09;;;;;;;14.32;4.53;;;;;;;11.52;100.00;102456.97;5036101;28;20041;-54
2023/05/26 06:27:35;;;;;;;12.88;3.47;;;;;;;11.64;100.00;102460.22;5040212;28;20035;-54
2023/05/26 06:30:00;;;;;;;16.30;1.77;;;;;;;11.64;100.00;102460.22;5036518;28;20037;-57
2023/05/26 06:32:26;;;;;;;15.48;3.95;;;;;;;11.66;100.00;102460.91;5038158;28;20044;-56
2023/05/26 06:34:51;;;;;;;13.98;3.35;;;;;;;11.78;100.00;102462.38;5036445;28;20033;-54
2023/05/26 06:37:16;;;;;;;15.88;3.15;;;;;;;11.90;100.00;102469.19;5035702;28;20650;-58
2023/05/26 06:39:42;;;;;;;9.18;2.00;;;;;;;11.99;100.00;102462.13;5039848;28;20037;-58
2023/05/26 06:42:07;;;;;;;14.48;2.95;;;;;;;11.97;100.00;102459.59;5035083;28;20031;-54
2023/05/26 06:44:35;;;;;;;13.63;2.05;;;;;;;12.05;100.00;102455.34;5033903;28;20037;-60
2023/05/26 06:47:01;;;;;;;11.13;2.10;;;;;;;12.14;100.00;102460.59;5036405;28;20124;-59
2023/05/26 06:49:26;;;;;;;16.27;3.65;;;;;;;12.15;100.00;102464.09;5036923;28;20021;-57
2023/05/26 06:51:51;;;;;;;12.88;1.70;;;;;;;12.25;100.00;102470.16;5034894;28;20044;-56
2023/05/26 06:54:17;;;;;;;19.55;2.95;;;;;;;12.27;100.00;102465.53;5038433;28;20366;-58
2023/05/26 06:56:42;;;;;;;15.40;2.28;;;;;;;12.28;100.00;102472.50;5041603;28;20377;-59
2023/05/26 06:59:07;;;;;;;9.02;2.83;;;;;;;12.20;100.00;102467.13;5039341;28;20036;-57
2023/05/26 07:01:33;;;;;;;9.75;2.15;;;;;;;12.21;100.00;102461.66;5039371;28;20120;-60
2023/05/26 07:03:58;;;;;;;8.90;0.90;;;;;;;12.36;100.00;102456.59;5035489;28;20032;-61
2023/05/26 07:06:23;;;;;;;12.52;3.55;;;;;;;12.61;100.00;102464.78;5042473;28;20075;-58
2023/05/26 07:08:49;;;;;;;5.93;2.10;;;;;;;12.63;100.00;102457.47;5040729;28;20082;-55
2023/05/26 07:11:14;;;;;;;12.90;2.65;;;;;;;12.63;100.00;102449.50;5035559;28;20033;-60
2023/05/26 07:13:40;;;;;;;16.75;1.38;;;;;;;12.64;100.00;102456.47;5038770;28;20035;-60
2023/05/26 07:16:05;;;;;;;21.15;3.35;;;;;;;12.68;100.00;102457.00;5042016;28;20032;-59
2023/05/26 07:18:30;;;;;;;6.63;1.45;;;;;;;12.83;100.00;102464.25;5037074;28;20033;-64
2023/05/26 07:20:56;;;;;;;13.68;2.05;;;;;;;13.00;100.00;102451.03;5039926;28;20083;-56
2023/05/26 07:23:21;;;;;;;11.77;3.28;;;;;;;13.24;100.00;102459.13;5043041;28;20033;-49
2023/05/26 07:25:46;;;;;;;11.63;2.05;;;;;;;13.35;100.00;102449.22;5039892;28;20393;-58
2023/05/26 07:28:11;;;;;;;11.93;1.67;;;;;;;13.49;100.00;102444.09;5036152;28;20124;-57
2023/05/26 07:30:37;;;;;;;13.68;3.90;;;;;;;13.51;100.00;102444.75;5041334;28;20090;-57
2023/05/26 07:33:02;;;;;;;11.90;2.45;;;;;;;13.60;100.00;102437.59;5037426;28;20037;-53
2023/05/26 07:35:28;;;;;;;17.13;2.33;;;;;;;13.78;100.00;102441.97;5040829;28;20056;-60
2023/05/26 07:37:55;;;;;;;7.68;1.50;;;;;;;13.88;100.00;102448.00;5040242;28;20036;-55
2023/05/26 07:40:20;;;;;;;11.98;1.50;;;;;;;13.98;100.00;102446.00;5042366;28;20115;-57
2023/05/26 07:42:46;;;;;;;9.68;1.90;;;;;;;14.10;100.00;102436.69;5043696;28;20612;-56
2023/05/26 07:45:11;;;;;;;13.93;3.40;;;;;;;14.27;100.00;102434.00;5040359;28;20029;-53
2023/05/26 07:47:37;;;;;;;13.43;2.45;;;;;;;14.20;100.00;102441.84;5041808;28;20377;-59
2023/05/26 07:50:02;;;;;;;10.30;2.45;;;;;;;14.15;100.00;102441.53;5039694;28;20040;-53
2023/05/26 07:52:28;;;;;;;11.05;2.20;;;;;;;14.15;100.00;102429.00;5043605;28;20033;-57
2023/05/26 07:54:53;;;;;;;11.57;2.38;;;;;;;14.36;100.00;102433.84;5041763;28;20158;-57
2023/05/26 07:57:19;;;;;;;12.05;2.75;;;;;;;14.48;100.00;102431.66;5041494;28;20033;-58
2023/05/26 07:59:44;;;;;;;14.85;4.05;;;;;;;14.65;100.00;102429.81;5034354;28;20028;-57
2023/05/26 08:02:10;;;;;;;13.02;1.63;;;;;;;14.90;100.00;102435.91;5040982;28;20059;-57
2023/05/26 08:04:36;;;;;;;8.95;2.90;;;;;;;14.90;100.00;102425.25;5042228;28;20045;-51
2023/05/26 08:07:02;;;;;;;8.68;1.92;;;;;;;14.93;100.00;102424.88;5039165;28;20037;-56
2023/05/26 08:09:27;;;;;;;13.55;2.17;;;;;;;15.05;100.00;102428.84;5036947;28;20040;-57
2023/05/26 08:11:52;;;;;;;7.30;1.25;;;;;;;15.25;100.00;102429.25;5045806;28;20549;-54
2023/05/26 08:14:19;;;;;;;9.88;1.50;;;;;;;15.25;100.00;102433.75;5042293;28;20033;-61
2023/05/26 08:16:45;;;;;;;11.23;1.95;;;;;;;15.39;100.00;102435.72;5035304;28;20052;-56
2023/05/26 08:19:10;;;;;;;18.45;5.05;;;;;;;15.41;100.00;102431.03;5043792;28;20053;-50
2023/05/26 08:21:35;;;;;;;13.35;3.83;;;;;;;15.24;100.00;102432.09;5034654;28;20456;-51
2023/05/26 08:24:01;;;;;;;8.43;2.30;;;;;;;15.58;100.00;102431.75;5040369;28;20033;-51
2023/05/26 08:26:26;;;;;;;11.65;1.48;;;;;;;15.75;100.00;102427.16;5033241;28;20112;-57
2023/05/26 08:28:51;;;;;;;15.68;2.10;;;;;;;15.76;100.00;102428.81;5025043;28;20052;-57
2023/05/26 08:31:18;;;;;;;17.85;2.95;;;;;;;15.99;100.00;102417.28;5034143;28;20036;-53
2023/05/26 08:33:44;;;;;;;14.52;1.67;;;;;;;15.80;100.00;102427.47;5039160;28;20037;-56
2023/05/26 08:36:09;;;;;;;11.70;2.22;;;;;;;15.78;100.00;102418.78;5038560;28;20043;-60
2023/05/26 08:38:34;;;;;;;6.85;2.20;;;;;;;16.01;100.00;102423.31;5036330;28;20052;-64
2023/05/26 08:41:03;;;;;;;9.13;1.35;;;;;;;16.47;100.00;102432.09;5038945;28;20063;-53
2023/05/26 08:43:45;;;;;;;10.98;1.85;;;;;;;16.63;100.00;102420.38;5041070;28;20040;-57
2023/05/26 08:46:11;;;;;;;12.07;1.85;;;;;;;16.58;100.00;102420.09;5036511;28;20130;-58
2023/05/26 08:48:39;;;;;;;8.50;1.67;;;;;;;16.78;100.00;102410.53;5046882;28;20167;-57
2023/05/26 08:51:08;;;;;;;9.07;2.17;;;;;;;16.97;100.00;102419.00;5037755;28;20025;-56
2023/05/26 08:53:33;;;;;;;11.00;1.83;;;;;;;17.19;100.00;102412.69;5041744;28;20389;-55
2023/05/26 08:56:00;;;;;;;12.95;2.67;;;;;;;17.04;100.00;102411.88;5038644;28;20029;-56
2023/05/26 08:58:26;;;;;;;8.73;1.60;;;;;;;17.31;100.00;102412.19;5043859;28;20033;-58
2023/05/26 09:00:52;;;;;;;10.07;2.97;;;;;;;17.70;100.00;102417.16;5043213;28;20029;-55
2023/05/26 09:03:18;;;;;;;7.68;2.28;;;;;;;17.67;100.00;102422.91;5045135;28;20033;-60
2023/05/26 09:05:44;;;;;;;10.68;2.35;;;;;;;17.64;100.00;102416.06;5043271;28;20040;-57
2023/05/26 09:08:12;;;;;;;15.48;1.55;;;;;;;17.84;100.00;102413.63;5039272;28;20033;-65
2023/05/26 09:10:38;;;;;;;8.35;1.30;;;;;;;17.93;100.00;102418.84;5043118;28;20075;-62
2023/05/26 09:13:09;;;;;;;7.18;1.63;;;;;;;17.90;100.00;102417.38;5044013;28;20049;-53
2023/05/26 09:15:36;;;;;;;6.75;3.03;;;;;;;17.99;100.00;102413.56;5032174;28;20111;-57
2023/05/26 09:18:12;;;;;;;10.93;1.77;;;;;;;17.97;100.00;102420.97;5043485;28;20456;-61
2023/05/26 09:20:42;;;;;;;8.73;3.20;;;;;;;18.11;100.00;102416.53;5041926;28;20039;-59
2023/05/26 09:23:08;;;;;;;9.07;2.45;;;;;;;18.12;100.00;102406.59;5043459;28;20025;-63
2023/05/26 09:25:35;;;;;;;8.77;2.22;;;;;;;18.23;100.00;102414.97;5044174;28;20083;-57
2023/05/26 09:28:08;;;;;;;8.05;1.45;;;;;;;18.25;100.00;102412.06;5021345;28;20040;-54
2023/05/26 09:30:44;;;;;;;4.47;1.83;;;;;;;18.17;100.00;102417.59;5038062;28;20422;-55
2023/05/26 09:33:16;;;;;;;11.85;2.05;;;;;;;18.24;100.00;102413.13;5044075;28;20393;-62
2023/05/26 09:35:45;;;;;;;9.50;2.10;;;;;;;18.48;100.00;102407.31;5035012;28;20535;-60
2023/05/26 09:38:12;;;;;;;5.80;1.15;;;;;;;18.68;100.00;102410.09;5042344;28;20138;-63
2023/05/26 09:40:42;;;;;;;6.70;1.55;;;;;;;18.78;100.00;102400.88;5044628;28;20029;-58
2023/05/26 09:43:08;;;;;;;9.40;2.13;;;;;;;18.87;100.00;102407.75;5046006;28;20044;-60
2023/05/26 09:45:35;;;;;;;7.60;1.65;;;;;;;18.87;100.00;102410.44;5043482;28;20556;-51
2023/05/26 09:48:02;;;;;;;6.60;1.48;;;;;;;18.97;100.00;102408.19;5040202;28;20501;-56
2023/05/26 09:50:32;;;;;;;7.63;1.48;;;;;;;18.99;100.00;102399.94;5038905;28;20040;-50
2023/05/26 09:52:59;;;;;;;8.90;2.53;;;;;;;19.07;100.00;102399.78;5043551;28;20033;-51
2023/05/26 09:55:25;;;;;;;12.15;1.50;;;;;;;18.99;99.85;102391.88;5035546;28;20025;-54
2023/05/26 09:57:52;;;;;;;6.35;1.70;;;;;;;19.02;100.00;102400.38;5041892;28;20492;-61
2023/05/26 10:00:19;;;;;;;11.32;1.60;;;;;;;19.33;100.00;102394.47;5043480;28;20035;-60
2023/05/26 10:02:46;;;;;;;4.07;2.28;;;;;;;19.42;98.53;102403.19;5040983;28;20494;-60
2023/05/26 10:05:12;;;;;;;10.25;2.58;;;;;;;19.25;97.66;102385.78;5044041;28;20072;-54
2023/05/26 10:07:40;;;;;;;5.65;1.17;;;;;;;18.86;100.00;102381.91;5045357;28;20083;-60
2023/05/26 10:10:08;;;;;;;4.82;0.60;;;;;;;19.01;100.00;102392.53;5043900;28;20417;-64
2023/05/26 10:12:35;;;;;;;7.50;2.47;;;;;;;19.43;100.00;102377.13;5041097;28;20079;-56
2023/05/26 10:15:02;;;;;;;12.50;2.53;;;;;;;19.73;97.55;102383.81;5046314;28;20040;-55
2023/05/26 10:17:29;;;;;;;8.55;1.30;;;;;;;20.23;96.33;102368.06;5047616;28;20078;-59
2023/05/26 10:19:56;;;;;;;5.85;1.67;;;;;;;20.40;96.88;102379.22;5046354;28;20488;-65
2023/05/26 10:22:32;;;;;;;11.13;1.50;;;;;;;20.45;96.97;102378.59;5036142;28;20041;-52
2023/05/26 10:25:03;;;;;;;15.68;1.50;;;;;;;19.91;97.26;102385.09;5042306;28;20039;-60
2023/05/26 10:27:36;;;;;;;6.40;1.05;;;;;;;19.98;96.24;102380.50;5042040;28;20036;-59
2023/05/26 10:30:10;;;;;;;5.72;1.73;;;;;;;20.21;94.10;102372.84;5042638;28;20599;-60
2023/05/26 10:32:55;;;;;;;15.55;1.15;;;;;;;20.21;92.82;102377.38;5039299;28;20377;-58
2023/05/26 10:35:27;;;;;;;6.13;1.65;;;;;;;20.54;93.13;102382.75;5038515;28;20053;-64
2023/05/26 10:38:02;;;;;;;10.38;2.67;;;;;;;20.83;91.89;102373.34;5043271;28;20086;-59
2023/05/26 10:40:30;;;;;;;4.40;1.08;;;;;;;20.96;94.19;102367.06;5044592;28;20056;-61
2023/05/26 10:43:11;;;;;;;8.02;1.05;;;;;;;20.98;92.68;102375.75;5038523;28;20622;-62
2023/05/26 10:46:02;;;;;;;6.97;0.75;;;;;;;21.23;92.13;102372.31;5040919;28;20384;-53
2023/05/26 10:48:38;;;;;;;;;;;;;;;21.68;85.89;102361.44;5031743;28;20049;-57
2023/05/26 10:51:05;;;;;;;5.93;2.25;;;;;;;21.80;90.28;102373.19;5038592;28;20391;-57
2023/05/26 10:53:35;;;;;;;8.15;1.55;;;;;;;21.63;87.86;102359.38;5047449;28;20033;-58
2023/05/26 10:56:02;;;;;;;9.20;1.98;;;;;;;21.42;86.87;102357.06;5036141;28;20488;-52
2023/05/26 10:58:35;;;;;;;10.13;1.85;;;;;;;21.23;88.37;102366.91;5039657;28;20383;-58
2023/05/26 11:01:06;;;;;;;7.57;0.95;;;;;;;21.33;86.23;102367.28;5039344;28;20029;-50
2023/05/26 11:03:37;;;;;;;11.90;2.30;;;;;;;21.68;84.92;102358.75;5038748;28;20140;-57
2023/05/26 11:06:05;;;;;;;3.10;0.63;;;;;;;21.64;84.23;102355.66;5034777;28;20036;-62
2023/05/26 11:08:50;;;;;;;5.97;1.23;;;;;;;21.84;81.65;102357.38;5037064;28;20087;-65
2023/05/26 11:11:29;;;;;;;7.68;1.75;;;;;;;21.90;82.50;102351.09;5036880;28;20033;-62
2023/05/26 11:14:12;;;;;;;3.15;0.65;;;;;;;21.90;84.05;102346.50;5041713;28;20033;-53
2023/05/26 11:16:42;;;;;;;6.43;1.10;;;;;;;22.06;83.27;102357.81;5037776;28;20029;-60
2023/05/26 11:19:10;;;;;;;11.15;1.92;;;;;;;22.20;84.34;102351.22;5044238;28;20040;-57